QAK2907 MMUN-MUHA
Flight info
| Callsign | QAK2907 |
|---|---|
| Flight time | N/A |
| Altitude | 37000 |
| Route | NUDAL1A NUDAL UR506 KALNO FARAC6A |
| Aircraft | B738/M-SDE2E3FGHIRWXY/LB1 |
Departure
| Time | 2026-05-06 17:37 |
|---|---|
| Airport | Cancún International Airport (MMUN) |
Arrival
| Time | N/A |
|---|---|
| Airport | José Martí International Airport (MUHA) |
| Time | Latitude | Longitude | Altitude | Speed | Heading |
|---|---|---|---|---|---|
| 2026-05-06 17:37 | 21.00064 | -86.81288 | 1663 ft | 249 kts | 118° |
| 2026-05-06 17:37 | 20.98985 | -86.79110 | 2008 ft | 256 kts | 118° |
| 2026-05-06 17:38 | 20.97205 | -86.75519 | 2541 ft | 260 kts | 118° |
| 2026-05-06 17:38 | 20.96518 | -86.74010 | 2738 ft | 261 kts | 110° |
| 2026-05-06 17:38 | 20.96125 | -86.72269 | 2948 ft | 261 kts | 95° |
| 2026-05-06 17:39 | 20.97354 | -86.64603 | 4302 ft | 266 kts | 78° |
| 2026-05-06 17:40 | 20.97716 | -86.62669 | 4800 ft | 268 kts | 78° |
| 2026-05-06 17:40 | 20.98084 | -86.60704 | 5303 ft | 270 kts | 78° |
| 2026-05-06 17:40 | 20.98601 | -86.58800 | 5786 ft | 272 kts | 71° |
| 2026-05-06 17:40 | 20.99246 | -86.56879 | 6296 ft | 274 kts | 69° |
| 2026-05-06 17:41 | 20.99818 | -86.55230 | 6728 ft | 276 kts | 69° |
| 2026-05-06 17:41 | 21.00382 | -86.53609 | 7160 ft | 283 kts | 69° |
| 2026-05-06 17:41 | 21.01906 | -86.49226 | 8379 ft | 302 kts | 69° |
| 2026-05-06 17:42 | 21.02714 | -86.46899 | 9003 ft | 307 kts | 69° |
| 2026-05-06 17:42 | 21.03438 | -86.44813 | 9533 ft | 311 kts | 69° |
| 2026-05-06 17:42 | 21.04164 | -86.42723 | 10057 ft | 314 kts | 69° |
| 2026-05-06 17:42 | 21.04909 | -86.40575 | 10580 ft | 316 kts | 69° |
| 2026-05-06 17:43 | 21.05683 | -86.38341 | 11101 ft | 318 kts | 69° |
| 2026-05-06 17:43 | 21.06464 | -86.36091 | 11607 ft | 320 kts | 69° |
| 2026-05-06 17:43 | 21.07219 | -86.33910 | 12094 ft | 321 kts | 70° |
| 2026-05-06 17:43 | 21.07999 | -86.31659 | 12593 ft | 321 kts | 70° |
| 2026-05-06 17:44 | 21.08773 | -86.29420 | 13089 ft | 321 kts | 70° |
| 2026-05-06 17:44 | 21.09553 | -86.27167 | 13587 ft | 321 kts | 70° |
| 2026-05-06 17:44 | 21.10323 | -86.24938 | 14079 ft | 320 kts | 70° |
| 2026-05-06 17:44 | 21.11092 | -86.22713 | 14572 ft | 319 kts | 70° |
| 2026-05-06 17:45 | 21.11866 | -86.20473 | 15068 ft | 318 kts | 70° |
| 2026-05-06 17:45 | 21.12633 | -86.18253 | 15562 ft | 317 kts | 70° |
| 2026-05-06 17:45 | 21.13396 | -86.16042 | 16055 ft | 316 kts | 70° |
| 2026-05-06 17:45 | 21.14146 | -86.13866 | 16542 ft | 315 kts | 70° |
| 2026-05-06 17:46 | 21.14892 | -86.11702 | 17029 ft | 313 kts | 70° |
| 2026-05-06 17:46 | 21.15649 | -86.09504 | 17522 ft | 312 kts | 70° |
| 2026-05-06 17:46 | 21.16399 | -86.07327 | 17991 ft | 311 kts | 70° |
| 2026-05-06 17:46 | 21.17150 | -86.05145 | 18455 ft | 310 kts | 70° |
| 2026-05-06 17:47 | 21.17883 | -86.03017 | 18902 ft | 309 kts | 70° |
| 2026-05-06 17:47 | 21.18628 | -86.00851 | 19365 ft | 307 kts | 70° |
| 2026-05-06 17:47 | 21.19309 | -85.98714 | 19793 ft | 306 kts | 76° |
| 2026-05-06 17:47 | 21.19783 | -85.96471 | 20260 ft | 304 kts | 78° |
| 2026-05-06 17:48 | 21.20200 | -85.94360 | 20694 ft | 303 kts | 78° |
| 2026-05-06 17:48 | 21.20552 | -85.92546 | 21069 ft | 300 kts | 78° |